Wetterdaten: Woche 25.11.24 - 01.12.24 (KW48)
Datum Zeit Temp. I. Temp. A. Feuchte I. Feuchte A. Luftdruck Regen Wind Richtung Sonnenschein Solar Taupunkt Windchill Windböen
25.11.2024 00:00 21,4 °C 12,3 °C 56 % 71 % 1012,9 hPa 0,0 l/m² 17,7 km/h (3 Bft) S-SO 0,00 h 0 W/m² 7,1 °C 7,0 °C 24,7 km/h (4 Bft)
25.11.2024 01:00 21,3 °C 11,8 °C 56 % 71 % 1012,7 hPa 0,0 l/m² 14,4 km/h (3 Bft) S-SO 0,00 h 0 W/m² 6,7 °C 7,6 °C 19,8 km/h (3 Bft)
25.11.2024 02:00 21,3 °C 11,4 °C 55 % 71 % 1012,7 hPa 0,0 l/m² 14,1 km/h (3 Bft) S-SO 0,00 h 0 W/m² 6,4 °C 7,3 °C 19,7 km/h (3 Bft)
25.11.2024 03:00 21,3 °C 11,0 °C 55 % 72 % 1012,4 hPa 0,0 l/m² 10,4 km/h (2 Bft) SO 0,00 h 0 W/m² 6,1 °C 8,5 °C 15,0 km/h (3 Bft)
25.11.2024 04:00 21,3 °C 9,8 °C 55 % 74 % 1012,2 hPa 0,0 l/m² 6,8 km/h (2 Bft) O-NO 0,00 h 0 W/m² 5,4 °C 8,7 °C 10,3 km/h (2 Bft)
25.11.2024 05:00 21,3 °C 9,8 °C 56 % 74 % 1011,8 hPa 0,0 l/m² 5,5 km/h (2 Bft) NO 0,00 h 0 W/m² 5,4 °C 8,9 °C 9,3 km/h (2 Bft)
25.11.2024 06:00 21,2 °C 11,0 °C 56 % 70 % 1011,5 hPa 0,0 l/m² 8,7 km/h (2 Bft) SO 0,00 h 0 W/m² 5,7 °C 9,5 °C 13,8 km/h (3 Bft)
25.11.2024 07:00 21,3 °C 9,7 °C 56 % 73 % 1011,0 hPa 0,0 l/m² 7,9 km/h (2 Bft) O 0,00 h 0 W/m² 5,1 °C 8,5 °C 11,3 km/h (2 Bft)
25.11.2024 08:00 21,4 °C 9,5 °C 56 % 75 % 1010,9 hPa 0,0 l/m² 6,4 km/h (2 Bft) O-SO 0,00 h 25 W/m² 5,3 °C 9,0 °C 10,0 km/h (2 Bft)
25.11.2024 09:00 21,4 °C 12,1 °C 55 % 70 % 1010,3 hPa 0,0 l/m² 9,5 km/h (2 Bft) S 0,78 h 72 W/m² 6,8 °C 10,2 °C 14,9 km/h (3 Bft)
25.11.2024 10:00 21,5 °C 13,7 °C 54 % 67 % 1010,1 hPa 0,0 l/m² 9,3 km/h (2 Bft) SO 0,98 h 140 W/m² 7,8 °C 12,1 °C 14,0 km/h (3 Bft)
25.11.2024 11:00 21,3 °C 13,7 °C 54 % 67 % 1009,5 hPa 0,0 l/m² 5,2 km/h (1 Bft) SO 0,45 h 48 W/m² 7,6 °C 13,5 °C 8,7 km/h (2 Bft)
25.11.2024 12:00 21,3 °C 13,8 °C 55 % 70 % 1008,8 hPa 0,0 l/m² 5,0 km/h (1 Bft) S-SO 0,75 h 87 W/m² 8,4 °C 13,7 °C 7,5 km/h (2 Bft)
25.11.2024 13:00 21,4 °C 14,5 °C 55 % 70 % 1008,2 hPa 0,0 l/m² 5,4 km/h (2 Bft) S-SO 1,00 h 104 W/m² 9,2 °C 14,3 °C 8,2 km/h (2 Bft)
25.11.2024 14:00 21,4 °C 14,2 °C 55 % 71 % 1007,8 hPa 0,0 l/m² 3,9 km/h (1 Bft) S-SO 0,50 h 47 W/m² 9,1 °C 14,1 °C 5,8 km/h (2 Bft)
25.11.2024 15:00 21,4 °C 14,6 °C 55 % 67 % 1007,8 hPa 0,0 l/m² 12,2 km/h (2 Bft) S 0,13 h 35 W/m² 8,6 °C 11,8 °C 16,8 km/h (3 Bft)
25.11.2024 16:00 21,3 °C 13,9 °C 55 % 67 % 1007,9 hPa 0,0 l/m² 5,9 km/h (2 Bft) S-SO 0,00 h 8 W/m² 7,9 °C 13,5 °C 8,1 km/h (2 Bft)
25.11.2024 17:00 21,2 °C 13,2 °C 55 % 66 % 1007,4 hPa 0,0 l/m² 5,2 km/h (1 Bft) S-SO 0,00 h 0 W/m² 6,9 °C 12,8 °C 8,0 km/h (2 Bft)
25.11.2024 18:00 21,3 °C 14,1 °C 55 % 61 % 1007,4 hPa 0,0 l/m² 12,8 km/h (3 Bft) S-SW 0,00 h 0 W/m² 6,8 °C 11,0 °C 17,2 km/h (3 Bft)
25.11.2024 19:00 21,3 °C 14,6 °C 55 % 58 % 1007,9 hPa 0,0 l/m² 14,9 km/h (3 Bft) S 0,00 h 0 W/m² 6,5 °C 10,7 °C 19,8 km/h (3 Bft)
25.11.2024 20:00 21,6 °C 15,0 °C 56 % 57 % 1008,1 hPa 0,0 l/m² 14,1 km/h (3 Bft) S 0,00 h 0 W/m² 6,6 °C 11,6 °C 19,2 km/h (3 Bft)
25.11.2024 21:00 21,7 °C 15,1 °C 56 % 58 % 1008,7 hPa 0,0 l/m² 14,4 km/h (3 Bft) S 0,00 h 0 W/m² 6,8 °C 11,6 °C 19,0 km/h (3 Bft)
25.11.2024 22:00 21,5 °C 14,8 °C 55 % 60 % 1009,3 hPa 0,0 l/m² 8,1 km/h (2 Bft) S-SW 0,00 h 0 W/m² 7,2 °C 13,6 °C 10,5 km/h (2 Bft)
25.11.2024 23:00 21,4 °C 13,5 °C 55 % 67 % 1010,1 hPa 0,0 l/m² 5,7 km/h (2 Bft) W-SW 0,00 h 0 W/m² 7,5 °C 13,2 °C 7,8 km/h (2 Bft)
26.11.2024 00:00 21,3 °C 12,0 °C 55 % 79 % 1010,9 hPa 0,4 l/m² 6,5 km/h (2 Bft) SW 0,00 h 0 W/m² 8,5 °C 11,4 °C 9,2 km/h (2 Bft)
26.11.2024 01:00 21,3 °C 11,2 °C 56 % 87 % 1011,4 hPa 0,6 l/m² 3,0 km/h (1 Bft) SW 0,00 h 0 W/m² 9,1 °C 11,2 °C 4,9 km/h (1 Bft)
26.11.2024 02:00 21,3 °C 10,7 °C 56 % 90 % 1012,2 hPa 0,4 l/m² 2,4 km/h (1 Bft) SW 0,00 h 0 W/m² 9,1 °C 10,6 °C 4,4 km/h (1 Bft)
26.11.2024 03:00 21,3 °C 10,4 °C 56 % 91 % 1012,9 hPa 0,2 l/m² 1,3 km/h (1 Bft) W 0,00 h 0 W/m² 9,0 °C 10,4 °C 2,1 km/h (1 Bft)
26.11.2024 04:00 21,3 °C 9,9 °C 56 % 92 % 1013,7 hPa 0,2 l/m² 0,0 km/h (0 Bft) W 0,00 h 0 W/m² 8,6 °C 9,9 °C 0,1 km/h (0 Bft)
26.11.2024 05:00 21,3 °C 9,3 °C 56 % 92 % 1014,4 hPa 0,0 l/m² 5,1 km/h (1 Bft) SW 0,00 h 0 W/m² 8,1 °C 9,0 °C 6,6 km/h (2 Bft)
26.11.2024 06:00 21,3 °C 8,9 °C 56 % 92 % 1015,2 hPa 0,0 l/m² 6,3 km/h (2 Bft) S-SW 0,00 h 0 W/m² 7,6 °C 8,5 °C 8,0 km/h (2 Bft)
26.11.2024 07:00 21,3 °C 8,4 °C 56 % 92 % 1016,2 hPa 0,0 l/m² 5,0 km/h (1 Bft) S-SW 0,00 h 0 W/m² 7,2 °C 8,2 °C 6,4 km/h (2 Bft)
26.11.2024 08:00 21,3 °C 8,1 °C 56 % 92 % 1016,8 hPa 0,0 l/m² 1,4 km/h (1 Bft) S-SW 0,00 h 16 W/m² 6,9 °C 8,1 °C 2,4 km/h (1 Bft)
26.11.2024 09:00 21,3 °C 8,2 °C 55 % 91 % 1017,7 hPa 0,0 l/m² 2,8 km/h (1 Bft) W 0,70 h 70 W/m² 6,9 °C 8,2 °C 4,9 km/h (1 Bft)
26.11.2024 10:00 22,1 °C 10,1 °C 54 % 87 % 1018,2 hPa 0,0 l/m² 8,2 km/h (2 Bft) SW 0,98 h 236 W/m² 8,1 °C 8,5 °C 11,7 km/h (2 Bft)
26.11.2024 11:00 22,6 °C 11,1 °C 53 % 82 % 1018,2 hPa 0,0 l/m² 13,2 km/h (3 Bft) SW 1,00 h 314 W/m² 8,2 °C 7,3 °C 18,0 km/h (3 Bft)
26.11.2024 12:00 22,5 °C 10,8 °C 53 % 81 % 1018,3 hPa 0,0 l/m² 9,2 km/h (2 Bft) SW 1,02 h 119 W/m² 7,7 °C 9,1 °C 12,8 km/h (3 Bft)
26.11.2024 13:00 22,1 °C 10,3 °C 55 % 83 % 1018,4 hPa 0,0 l/m² 5,6 km/h (2 Bft) S-SW 0,80 h 61 W/m² 7,6 °C 10,1 °C 7,3 km/h (2 Bft)
26.11.2024 14:00 22,0 °C 10,2 °C 55 % 83 % 1018,7 hPa 0,0 l/m² 4,3 km/h (1 Bft) W 0,00 h 26 W/m² 7,5 °C 10,1 °C 6,8 km/h (2 Bft)
26.11.2024 15:00 21,8 °C 9,7 °C 55 % 84 % 1019,0 hPa 0,0 l/m² 0,1 km/h (0 Bft) W 0,00 h 11 W/m² 7,1 °C 9,7 °C 0,5 km/h (0 Bft)
26.11.2024 16:00 21,7 °C 8,9 °C 55 % 86 % 1019,3 hPa 0,0 l/m² 0,2 km/h (0 Bft) W 0,00 h 7 W/m² 6,7 °C 8,9 °C 1,0 km/h (0 Bft)
26.11.2024 17:00 21,6 °C 7,1 °C 55 % 89 % 1019,7 hPa 0,0 l/m² 0,9 km/h (0 Bft) W 0,00 h 0 W/m² 5,4 °C 7,1 °C 1,9 km/h (1 Bft)
26.11.2024 18:00 21,6 °C 7,0 °C 54 % 90 % 1019,9 hPa 0,0 l/m² 2,8 km/h (1 Bft) S 0,00 h 0 W/m² 5,4 °C 7,0 °C 4,1 km/h (1 Bft)
26.11.2024 19:00 21,5 °C 6,1 °C 55 % 90 % 1020,1 hPa 0,0 l/m² 0,0 km/h (0 Bft) S 0,00 h 0 W/m² 4,5 °C 6,1 °C 0,0 km/h (0 Bft)
26.11.2024 20:00 21,7 °C 4,9 °C 55 % 89 % 1020,3 hPa 0,0 l/m² 0,9 km/h (0 Bft) S 0,00 h 0 W/m² 3,3 °C 4,9 °C 2,1 km/h (1 Bft)
26.11.2024 21:00 21,9 °C 3,7 °C 56 % 90 % 1020,5 hPa 0,0 l/m² 1,2 km/h (1 Bft) S-SW 0,00 h 0 W/m² 2,2 °C 3,7 °C 2,1 km/h (1 Bft)
26.11.2024 22:00 21,7 °C 3,2 °C 55 % 91 % 1020,7 hPa 0,0 l/m² 0,2 km/h (0 Bft) SO 0,00 h 0 W/m² 1,9 °C 3,2 °C 0,7 km/h (0 Bft)
26.11.2024 23:00 21,6 °C 3,2 °C 56 % 92 % 1020,9 hPa 0,0 l/m² 1,0 km/h (0 Bft) W-SW 0,00 h 0 W/m² 2,0 °C 3,2 °C 1,7 km/h (1 Bft)
27.11.2024 00:00 21,6 °C 3,2 °C 56 % 92 % 1021,0 hPa 0,0 l/m² 0,0 km/h (0 Bft) W-SW 0,00 h 0 W/m² 2,0 °C 3,2 °C 0,6 km/h (0 Bft)
27.11.2024 01:00 21,5 °C 3,0 °C 56 % 93 % 1021,3 hPa 0,0 l/m² 0,5 km/h (0 Bft) W-SW 0,00 h 0 W/m² 2,0 °C 3,0 °C 1,0 km/h (0 Bft)
27.11.2024 02:00 21,4 °C 5,0 °C 55 % 94 % 1021,4 hPa 0,0 l/m² 4,5 km/h (1 Bft) SW 0,00 h 0 W/m² 4,1 °C 4,9 °C 6,8 km/h (2 Bft)
27.11.2024 03:00 21,4 °C 5,7 °C 55 % 94 % 1021,7 hPa 0,0 l/m² 6,4 km/h (2 Bft) S-SW 0,00 h 0 W/m² 4,8 °C 4,9 °C 9,2 km/h (2 Bft)
27.11.2024 04:00 21,4 °C 5,8 °C 55 % 93 % 1021,6 hPa 0,0 l/m² 3,3 km/h (1 Bft) SW 0,00 h 0 W/m² 4,8 °C 5,7 °C 5,0 km/h (1 Bft)
27.11.2024 05:00 21,4 °C 4,8 °C 56 % 92 % 1021,6 hPa 0,0 l/m² 1,2 km/h (1 Bft) SW 0,00 h 0 W/m² 3,6 °C 4,8 °C 2,9 km/h (1 Bft)
27.11.2024 06:00 21,4 °C 3,5 °C 56 % 92 % 1021,9 hPa 0,0 l/m² 1,8 km/h (1 Bft) SW 0,00 h 0 W/m² 2,3 °C 3,5 °C 3,6 km/h (1 Bft)
27.11.2024 07:00 21,3 °C 3,5 °C 54 % 93 % 1022,2 hPa 0,0 l/m² 1,4 km/h (1 Bft) S 0,00 h 5 W/m² 2,4 °C 3,5 °C 2,7 km/h (1 Bft)
27.11.2024 08:00 21,6 °C 3,8 °C 54 % 93 % 1022,5 hPa 0,0 l/m² 0,5 km/h (0 Bft) S 0,17 h 32 W/m² 2,8 °C 3,8 °C 1,2 km/h (1 Bft)
27.11.2024 09:00 22,1 °C 4,7 °C 53 % 93 % 1022,5 hPa 0,0 l/m² 1,2 km/h (1 Bft) S 0,87 h 130 W/m² 3,6 °C 4,7 °C 2,1 km/h (1 Bft)
27.11.2024 10:00 22,0 °C 6,6 °C 53 % 88 % 1022,1 hPa 0,0 l/m² 0,3 km/h (0 Bft) S 0,80 h 77 W/m² 4,8 °C 6,6 °C 0,9 km/h (0 Bft)
27.11.2024 11:00 22,1 °C 7,5 °C 53 % 86 % 1021,5 hPa 0,0 l/m² 6,8 km/h (2 Bft) S-SO 1,00 h 173 W/m² 5,4 °C 6,6 °C 9,6 km/h (2 Bft)
27.11.2024 12:00 21,9 °C 8,1 °C 53 % 86 % 1020,8 hPa 0,0 l/m² 4,4 km/h (1 Bft) O-SO 1,00 h 102 W/m² 5,9 °C 8,0 °C 6,2 km/h (2 Bft)
27.11.2024 13:00 21,8 °C 8,6 °C 54 % 86 % 1019,9 hPa 0,0 l/m² 4,3 km/h (1 Bft) O-SO 1,00 h 79 W/m² 6,4 °C 8,6 °C 6,4 km/h (2 Bft)
27.11.2024 14:00 21,8 °C 9,7 °C 54 % 84 % 1018,6 hPa 0,0 l/m² 9,0 km/h (2 Bft) O-SO 0,95 h 111 W/m² 7,1 °C 7,9 °C 12,4 km/h (2 Bft)
27.11.2024 15:00 21,7 °C 10,1 °C 54 % 82 % 1017,3 hPa 0,0 l/m² 13,3 km/h (3 Bft) SO 0,00 h 22 W/m² 7,2 °C 6,1 °C 17,6 km/h (3 Bft)
27.11.2024 16:00 21,6 °C 9,8 °C 54 % 82 % 1016,5 hPa 0,0 l/m² 12,8 km/h (3 Bft) O-SO 0,00 h 9 W/m² 6,9 °C 6,1 °C 16,9 km/h (3 Bft)
27.11.2024 17:00 21,5 °C 9,2 °C 53 % 84 % 1015,3 hPa 0,0 l/m² 12,1 km/h (2 Bft) O-SO 0,00 h 0 W/m² 6,6 °C 5,6 °C 15,5 km/h (3 Bft)
27.11.2024 18:00 21,4 °C 9,6 °C 54 % 82 % 1014,1 hPa 0,0 l/m² 15,2 km/h (3 Bft) SO 0,00 h 0 W/m² 6,6 °C 4,6 °C 20,2 km/h (4 Bft)
27.11.2024 19:00 21,3 °C 9,8 °C 54 % 81 % 1012,7 hPa 0,0 l/m² 17,0 km/h (3 Bft) S 0,00 h 0 W/m² 6,7 °C 4,2 °C 23,2 km/h (4 Bft)
27.11.2024 20:00 21,3 °C 10,1 °C 53 % 79 % 1011,5 hPa 0,0 l/m² 20,2 km/h (4 Bft) S-SO 0,00 h 0 W/m² 6,6 °C 3,5 °C 28,3 km/h (5 Bft)
27.11.2024 21:00 21,3 °C 10,3 °C 54 % 78 % 1010,9 hPa 0,0 l/m² 15,1 km/h (3 Bft) S-SO 0,00 h 0 W/m² 6,6 °C 5,5 °C 21,2 km/h (4 Bft)
27.11.2024 22:00 21,2 °C 10,5 °C 55 % 79 % 1009,8 hPa 0,2 l/m² 17,4 km/h (3 Bft) S 0,00 h 0 W/m² 7,0 °C 4,8 °C 23,6 km/h (4 Bft)
27.11.2024 23:00 21,2 °C 11,0 °C 55 % 79 % 1009,2 hPa 0,0 l/m² 20,5 km/h (4 Bft) S 0,00 h 0 W/m² 7,5 °C 4,4 °C 27,6 km/h (5 Bft)
28.11.2024 00:00 21,2 °C 10,9 °C 55 % 83 % 1008,5 hPa 0,0 l/m² 24,0 km/h (4 Bft) S-SW 0,00 h 0 W/m² 8,1 °C 3,4 °C 32,1 km/h (5 Bft)
28.11.2024 01:00 21,1 °C 10,0 °C 55 % 77 % 1008,8 hPa 0,0 l/m² 30,3 km/h (5 Bft) SW 0,00 h 0 W/m² 6,2 °C 0,8 °C 39,9 km/h (6 Bft)
28.11.2024 02:00 21,1 °C 7,8 °C 55 % 75 % 1008,9 hPa 0,0 l/m² 26,9 km/h (4 Bft) SW 0,00 h 0 W/m² 3,5 °C -1,6 °C 34,7 km/h (5 Bft)
28.11.2024 03:00 21,1 °C 7,7 °C 55 % 75 % 1008,7 hPa 0,0 l/m² 29,7 km/h (5 Bft) SW 0,00 h 0 W/m² 3,6 °C -2,4 °C 40,9 km/h (6 Bft)
28.11.2024 04:00 21,1 °C 7,8 °C 54 % 76 % 1008,9 hPa 0,0 l/m² 33,8 km/h (5 Bft) SW 0,00 h 0 W/m² 3,8 °C -3,2 °C 46,3 km/h (6 Bft)
28.11.2024 05:00 21,1 °C 7,5 °C 54 % 77 % 1008,9 hPa 0,0 l/m² 36,0 km/h (5 Bft) SW 0,00 h 0 W/m² 3,7 °C -4,0 °C 48,8 km/h (7 Bft)
28.11.2024 06:00 21,1 °C 7,4 °C 55 % 77 % 1009,6 hPa 0,0 l/m² 32,2 km/h (5 Bft) SW 0,00 h 0 W/m² 3,6 °C -3,4 °C 44,1 km/h (6 Bft)
28.11.2024 07:00 21,1 °C 7,2 °C 54 % 78 % 1010,5 hPa 0,0 l/m² 29,0 km/h (5 Bft) SW 0,00 h 7 W/m² 3,6 °C -3,1 °C 40,2 km/h (6 Bft)
28.11.2024 08:00 21,1 °C 7,1 °C 54 % 81 % 1011,1 hPa 0,0 l/m² 29,8 km/h (5 Bft) SW 0,00 h 22 W/m² 4,0 °C -3,3 °C 40,2 km/h (6 Bft)
28.11.2024 09:00 21,1 °C 6,8 °C 53 % 83 % 1012,1 hPa 0,2 l/m² 27,0 km/h (5 Bft) W-SW 0,00 h 14 W/m² 4,2 °C -3,0 °C 35,6 km/h (5 Bft)
28.11.2024 10:00 21,1 °C 7,4 °C 53 % 78 % 1013,4 hPa 0,0 l/m² 30,6 km/h (5 Bft) W 0,00 h 25 W/m² 3,9 °C -3,0 °C 44,5 km/h (6 Bft)
28.11.2024 11:00 21,2 °C 7,6 °C 53 % 77 % 1014,3 hPa 0,0 l/m² 38,6 km/h (6 Bft) W 0,00 h 31 W/m² 3,8 °C -4,3 °C 56,1 km/h (7 Bft)
28.11.2024 12:00 21,2 °C 7,7 °C 53 % 77 % 1015,0 hPa 0,0 l/m² 36,3 km/h (5 Bft) W 0,98 h 87 W/m² 4,0 °C -3,8 °C 52,6 km/h (7 Bft)
28.11.2024 13:00 21,2 °C 7,5 °C 54 % 79 % 1015,7 hPa 0,0 l/m² 33,9 km/h (5 Bft) W 0,17 h 40 W/m² 4,2 °C -3,6 °C 47,7 km/h (6 Bft)
28.11.2024 14:00 21,2 °C 7,1 °C 54 % 83 % 1017,0 hPa 0,0 l/m² 29,6 km/h (5 Bft) W 0,00 h 17 W/m² 4,4 °C -3,3 °C 42,6 km/h (6 Bft)
28.11.2024 15:00 21,3 °C 7,1 °C 55 % 84 % 1018,2 hPa 0,0 l/m² 24,0 km/h (4 Bft) W 0,00 h 10 W/m² 4,5 °C -1,7 °C 33,4 km/h (5 Bft)
28.11.2024 16:00 21,3 °C 7,1 °C 55 % 83 % 1019,5 hPa 0,0 l/m² 24,6 km/h (4 Bft) W 0,00 h 0 W/m² 4,5 °C -1,9 °C 34,3 km/h (5 Bft)
28.11.2024 17:00 21,3 °C 7,0 °C 57 % 81 % 1020,8 hPa 0,0 l/m² 23,3 km/h (4 Bft) W-NW 0,00 h 0 W/m² 3,9 °C -1,6 °C 33,9 km/h (5 Bft)
28.11.2024 18:00 21,3 °C 6,9 °C 57 % 79 % 1021,8 hPa 0,0 l/m² 23,2 km/h (4 Bft) W-NW 0,00 h 0 W/m² 3,4 °C -1,8 °C 33,4 km/h (5 Bft)
28.11.2024 19:00 21,3 °C 6,7 °C 57 % 80 % 1022,9 hPa 0,0 l/m² 17,8 km/h (3 Bft) W 0,00 h 0 W/m² 3,5 °C 0,1 °C 26,8 km/h (4 Bft)
28.11.2024 20:00 21,3 °C 6,3 °C 58 % 82 % 1024,1 hPa 0,0 l/m² 15,3 km/h (3 Bft) W 0,00 h 0 W/m² 3,5 °C 0,6 °C 24,0 km/h (4 Bft)
28.11.2024 21:00 21,5 °C 5,7 °C 56 % 86 % 1025,3 hPa 0,2 l/m² 13,7 km/h (3 Bft) W-NW 0,00 h 0 W/m² 3,6 °C 0,8 °C 21,1 km/h (4 Bft)
28.11.2024 22:00 21,4 °C 5,6 °C 55 % 88 % 1026,1 hPa 0,0 l/m² 11,2 km/h (2 Bft) W-NW 0,00 h 0 W/m² 3,8 °C 2,1 °C 17,8 km/h (3 Bft)
28.11.2024 23:00 21,3 °C 5,8 °C 55 % 88 % 1027,0 hPa 0,0 l/m² 9,0 km/h (2 Bft) W-NW 0,00 h 0 W/m² 3,9 °C 3,7 °C 16,3 km/h (3 Bft)
29.11.2024 00:00 21,2 °C 5,8 °C 55 % 87 % 1027,8 hPa 0,0 l/m² 8,7 km/h (2 Bft) W-NW 0,00 h 0 W/m² 3,8 °C 3,9 °C 16,2 km/h (3 Bft)
29.11.2024 01:00 21,3 °C 5,8 °C 55 % 87 % 1028,5 hPa 0,0 l/m² 10,1 km/h (2 Bft) W-NW 0,00 h 0 W/m² 3,8 °C 3,0 °C 18,0 km/h (3 Bft)
29.11.2024 02:00 21,2 °C 5,6 °C 55 % 88 % 1029,3 hPa 0,0 l/m² 9,3 km/h (2 Bft) W-NW 0,00 h 0 W/m² 3,7 °C 3,3 °C 16,4 km/h (3 Bft)
29.11.2024 03:00 21,2 °C 5,4 °C 55 % 88 % 1029,9 hPa 0,0 l/m² 7,9 km/h (2 Bft) NW 0,00 h 0 W/m² 3,6 °C 3,9 °C 14,6 km/h (3 Bft)
29.11.2024 04:00 21,2 °C 5,4 °C 55 % 87 % 1030,5 hPa 0,0 l/m² 8,6 km/h (2 Bft) NW 0,00 h 0 W/m² 3,4 °C 3,3 °C 15,1 km/h (3 Bft)
29.11.2024 05:00 21,2 °C 5,4 °C 55 % 86 % 1031,1 hPa 0,0 l/m² 6,6 km/h (2 Bft) NW 0,00 h 0 W/m² 3,2 °C 4,7 °C 12,0 km/h (2 Bft)
29.11.2024 06:00 21,2 °C 5,1 °C 56 % 86 % 1031,6 hPa 0,0 l/m² 3,8 km/h (1 Bft) W-NW 0,00 h 0 W/m² 2,9 °C 5,1 °C 7,9 km/h (2 Bft)
29.11.2024 07:00 21,2 °C 4,5 °C 55 % 86 % 1032,1 hPa 0,0 l/m² 3,1 km/h (1 Bft) N-NW 0,00 h 5 W/m² 2,3 °C 4,5 °C 5,4 km/h (2 Bft)
29.11.2024 08:00 21,2 °C 3,9 °C 55 % 87 % 1032,5 hPa 0,0 l/m² 2,1 km/h (1 Bft) W 0,03 h 24 W/m² 1,9 °C 3,9 °C 3,6 km/h (1 Bft)
29.11.2024 09:00 21,3 °C 4,0 °C 54 % 90 % 1032,9 hPa 0,0 l/m² 1,4 km/h (1 Bft) W 0,68 h 59 W/m² 2,5 °C 4,0 °C 2,6 km/h (1 Bft)
29.11.2024 10:00 21,2 °C 4,8 °C 54 % 91 % 1033,5 hPa 0,0 l/m² 0,6 km/h (0 Bft) W-SW 1,00 h 64 W/m² 3,5 °C 4,8 °C 1,5 km/h (1 Bft)
29.11.2024 11:00 21,2 °C 5,4 °C 55 % 90 % 1033,9 hPa 0,0 l/m² 0,4 km/h (0 Bft) W-SW 1,00 h 71 W/m² 3,9 °C 5,4 °C 1,0 km/h (0 Bft)
29.11.2024 12:00 21,1 °C 5,9 °C 55 % 85 % 1034,0 hPa 0,0 l/m² 1,9 km/h (1 Bft) W-SW 1,00 h 80 W/m² 3,5 °C 5,9 °C 3,3 km/h (1 Bft)
29.11.2024 13:00 21,2 °C 6,2 °C 53 % 77 % 1033,9 hPa 0,0 l/m² 0,9 km/h (0 Bft) W-NW 0,70 h 59 W/m² 2,6 °C 6,2 °C 2,0 km/h (1 Bft)
29.11.2024 14:00 21,3 °C 6,3 °C 52 % 76 % 1034,1 hPa 0,0 l/m² 0,5 km/h (0 Bft) W-NW 0,00 h 28 W/m² 2,3 °C 6,3 °C 1,5 km/h (1 Bft)
29.11.2024 15:00 21,2 °C 6,1 °C 51 % 80 % 1034,1 hPa 0,0 l/m² 0,1 km/h (0 Bft) W-NW 0,00 h 13 W/m² 3,0 °C 6,1 °C 0,4 km/h (0 Bft)
29.11.2024 16:00 21,1 °C 5,7 °C 50 % 83 % 1034,1 hPa 0,0 l/m² 0,0 km/h (0 Bft) W-NW 0,00 h 0 W/m² 3,1 °C 5,7 °C 0,0 km/h (0 Bft)
29.11.2024 17:00 21,1 °C 5,3 °C 53 % 84 % 1034,2 hPa 0,0 l/m² 0,0 km/h (0 Bft) W-NW 0,00 h 0 W/m² 2,9 °C 5,3 °C 0,0 km/h (0 Bft)
29.11.2024 18:00 21,1 °C 4,9 °C 54 % 85 % 1034,1 hPa 0,0 l/m² 0,3 km/h (0 Bft) W-NW 0,00 h 0 W/m² 2,7 °C 4,9 °C 0,7 km/h (0 Bft)
29.11.2024 19:00 21,2 °C 4,8 °C 54 % 84 % 1034,7 hPa 0,0 l/m² 0,3 km/h (0 Bft) W-NW 0,00 h 0 W/m² 2,3 °C 4,8 °C 0,7 km/h (0 Bft)
29.11.2024 20:00 21,3 °C 4,8 °C 54 % 81 % 1035,1 hPa 0,0 l/m² 2,8 km/h (1 Bft) SO 0,00 h 0 W/m² 1,9 °C 4,8 °C 4,6 km/h (1 Bft)
29.11.2024 21:00 21,6 °C 4,7 °C 55 % 81 % 1035,0 hPa 0,0 l/m² 3,9 km/h (1 Bft) SO 0,00 h 0 W/m² 1,7 °C 4,7 °C 5,7 km/h (2 Bft)
29.11.2024 22:00 21,7 °C 4,2 °C 55 % 81 % 1034,6 hPa 0,0 l/m² 1,1 km/h (1 Bft) S-SO 0,00 h 0 W/m² 1,2 °C 4,1 °C 1,8 km/h (1 Bft)
29.11.2024 23:00 21,7 °C 2,7 °C 55 % 83 % 1034,4 hPa 0,0 l/m² 0,1 km/h (0 Bft) S-SO 0,00 h 0 W/m² 0,1 °C 2,7 °C 0,5 km/h (0 Bft)
30.11.2024 00:00 21,5 °C 1,1 °C 55 % 85 % 1034,5 hPa 0,0 l/m² 0,1 km/h (0 Bft) S-SO 0,00 h 0 W/m² -1,2 °C 1,1 °C 0,3 km/h (0 Bft)
30.11.2024 01:00 21,4 °C -0,1 °C 55 % 86 % 1034,1 hPa 0,0 l/m² 0,0 km/h (0 Bft) S-SO 0,00 h 0 W/m² -2,1 °C -0,1 °C 0,0 km/h (0 Bft)
30.11.2024 02:00 21,4 °C -1,0 °C 55 % 88 % 1034,0 hPa 0,0 l/m² 0,7 km/h (0 Bft) S-SO 0,00 h 0 W/m² -2,7 °C -1,0 °C 1,4 km/h (1 Bft)
30.11.2024 03:00 21,5 °C -1,2 °C 55 % 90 % 1033,4 hPa 0,0 l/m² 6,3 km/h (2 Bft) O 0,00 h 0 W/m² -2,6 °C -1,6 °C 7,9 km/h (2 Bft)
30.11.2024 04:00 21,4 °C -1,0 °C 55 % 91 % 1033,3 hPa 0,0 l/m² 6,8 km/h (2 Bft) O 0,00 h 0 W/m² -2,3 °C -1,7 °C 9,5 km/h (2 Bft)
30.11.2024 05:00 21,6 °C -0,8 °C 55 % 91 % 1033,1 hPa 0,0 l/m² 4,2 km/h (1 Bft) O-SO 0,00 h 0 W/m² -2,0 °C -0,8 °C 6,4 km/h (2 Bft)
30.11.2024 06:00 21,6 °C -1,1 °C 55 % 91 % 1033,3 hPa 0,0 l/m² 0,4 km/h (0 Bft) S-SO 0,00 h 0 W/m² -2,4 °C -1,1 °C 1,1 km/h (1 Bft)
30.11.2024 07:00 21,6 °C -2,0 °C 55 % 90 % 1033,3 hPa 0,0 l/m² 0,0 km/h (0 Bft) S-SO 0,00 h 5 W/m² -3,5 °C -2,0 °C 0,0 km/h (0 Bft)
30.11.2024 08:00 21,6 °C -2,1 °C 55 % 91 % 1033,4 hPa 0,0 l/m² 0,1 km/h (0 Bft) S-SO 0,37 h 37 W/m² -3,4 °C -2,1 °C 0,2 km/h (0 Bft)
30.11.2024 09:00 21,9 °C 0,2 °C 53 % 89 % 1033,5 hPa 0,2 l/m² 0,0 km/h (0 Bft) S-SO 1,00 h 128 W/m² -1,3 °C 0,2 °C 0,2 km/h (0 Bft)
30.11.2024 10:00 22,4 °C 2,2 °C 51 % 86 % 1033,5 hPa 0,0 l/m² 5,0 km/h (1 Bft) S-SO 1,00 h 225 W/m² 0,0 °C 1,9 °C 7,6 km/h (2 Bft)
30.11.2024 11:00 22,7 °C 3,8 °C 52 % 81 % 1032,9 hPa 0,0 l/m² 9,1 km/h (2 Bft) SO 1,00 h 262 W/m² 0,9 °C 1,5 °C 13,0 km/h (3 Bft)
30.11.2024 12:00 23,1 °C 5,2 °C 55 % 78 % 1032,4 hPa 0,0 l/m² 11,7 km/h (2 Bft) S-SO 1,00 h 268 W/m² 1,6 °C 1,1 °C 15,7 km/h (3 Bft)
30.11.2024 13:00 23,2 °C 5,9 °C 57 % 76 % 1031,9 hPa 0,0 l/m² 10,7 km/h (2 Bft) S-SO 1,00 h 234 W/m² 2,0 °C 2,6 °C 14,2 km/h (3 Bft)
30.11.2024 14:00 22,8 °C 6,2 °C 57 % 75 % 1031,2 hPa 0,0 l/m² 8,5 km/h (2 Bft) SO 1,00 h 142 W/m² 2,1 °C 4,5 °C 11,9 km/h (2 Bft)
30.11.2024 15:00 22,5 °C 5,4 °C 54 % 77 % 1031,0 hPa 0,0 l/m² 3,8 km/h (1 Bft) SO 0,20 h 32 W/m² 1,6 °C 5,3 °C 5,6 km/h (2 Bft)
30.11.2024 16:00 22,6 °C 2,9 °C 54 % 83 % 1030,7 hPa 0,0 l/m² 5,0 km/h (1 Bft) O 0,00 h 5 W/m² 0,4 °C 2,6 °C 7,2 km/h (2 Bft)
30.11.2024 17:00 22,4 °C 1,5 °C 52 % 87 % 1030,4 hPa 0,0 l/m² 1,6 km/h (1 Bft) O 0,00 h 0 W/m² -0,4 °C 1,5 °C 2,5 km/h (1 Bft)
30.11.2024 18:00 22,3 °C -0,3 °C 53 % 89 % 1030,4 hPa 0,0 l/m² 0,1 km/h (0 Bft) O 0,00 h 0 W/m² -1,8 °C -0,3 °C 0,2 km/h (0 Bft)
30.11.2024 19:00 22,1 °C -1,1 °C 52 % 91 % 1030,1 hPa 0,0 l/m² 0,0 km/h (0 Bft) O 0,00 h 0 W/m² -2,4 °C -1,1 °C 0,0 km/h (0 Bft)
30.11.2024 20:00 22,4 °C -1,8 °C 53 % 92 % 1030,0 hPa 0,0 l/m² 0,2 km/h (0 Bft) O 0,00 h 0 W/m² -3,0 °C -1,8 °C 0,6 km/h (0 Bft)
30.11.2024 21:00 22,8 °C -2,0 °C 55 % 92 % 1030,0 hPa 0,0 l/m² 0,4 km/h (0 Bft) O 0,00 h 0 W/m² -3,1 °C -2,0 °C 0,8 km/h (0 Bft)
30.11.2024 22:00 22,6 °C -1,7 °C 54 % 93 % 1029,7 hPa 0,0 l/m² 0,8 km/h (0 Bft) O 0,00 h 0 W/m² -2,8 °C -1,7 °C 1,7 km/h (1 Bft)
30.11.2024 23:00 22,3 °C -2,1 °C 55 % 92 % 1029,7 hPa 0,0 l/m² 0,2 km/h (0 Bft) O 0,00 h 0 W/m² -3,2 °C -2,1 °C 0,6 km/h (0 Bft)
01.12.2024 00:00 22,3 °C -2,5 °C 55 % 92 % 1029,3 hPa 0,0 l/m² 0,1 km/h (0 Bft) O 0,00 h 0 W/m² -3,6 °C -2,5 °C 0,4 km/h (0 Bft)
01.12.2024 01:00 22,2 °C -3,2 °C 55 % 92 % 1028,9 hPa 0,0 l/m² 0,0 km/h (0 Bft) O 0,00 h 0 W/m² -4,3 °C -3,2 °C 0,0 km/h (0 Bft)
01.12.2024 02:00 22,2 °C -3,7 °C 55 % 92 % 1028,6 hPa 0,0 l/m² 0,0 km/h (0 Bft) O 0,00 h 0 W/m² -4,8 °C -3,7 °C 0,1 km/h (0 Bft)
01.12.2024 03:00 22,1 °C -3,8 °C 55 % 92 % 1028,1 hPa 0,0 l/m² 0,0 km/h (0 Bft) O 0,00 h 0 W/m² -4,9 °C -3,8 °C 0,0 km/h (0 Bft)
01.12.2024 04:00 22,1 °C -4,3 °C 55 % 92 % 1027,8 hPa 0,0 l/m² 0,4 km/h (0 Bft) O 0,00 h 0 W/m² -5,4 °C -4,3 °C 0,9 km/h (0 Bft)
01.12.2024 05:00 22,1 °C -4,7 °C 54 % 92 % 1027,5 hPa 0,0 l/m² 0,0 km/h (0 Bft) O 0,00 h 0 W/m² -5,8 °C -4,7 °C 0,0 km/h (0 Bft)
01.12.2024 06:00 22,0 °C -5,0 °C 54 % 92 % 1027,3 hPa 0,0 l/m² 0,5 km/h (0 Bft) O 0,00 h 0 W/m² -6,1 °C -5,0 °C 1,0 km/h (0 Bft)
01.12.2024 07:00 22,1 °C -5,3 °C 54 % 92 % 1027,0 hPa 0,0 l/m² 0,3 km/h (0 Bft) O 0,00 h 5 W/m² -6,4 °C -5,3 °C 0,5 km/h (0 Bft)
01.12.2024 08:00 22,2 °C -4,6 °C 54 % 92 % 1027,0 hPa 0,0 l/m² 0,7 km/h (0 Bft) O 0,10 h 29 W/m² -5,7 °C -4,6 °C 1,1 km/h (1 Bft)
01.12.2024 09:00 22,3 °C -2,3 °C 50 % 93 % 1026,5 hPa 0,0 l/m² 1,2 km/h (1 Bft) O 1,00 h 180 W/m² -3,4 °C -2,3 °C 2,0 km/h (1 Bft)
01.12.2024 10:00 22,8 °C 0,1 °C 46 % 90 % 1026,1 hPa 0,2 l/m² 0,3 km/h (0 Bft) O 1,00 h 268 W/m² -1,3 °C 0,1 °C 1,1 km/h (1 Bft)
01.12.2024 11:00 23,4 °C 2,5 °C 46 % 88 % 1025,7 hPa 0,0 l/m² 1,5 km/h (1 Bft) O 1,00 h 308 W/m² 0,7 °C 2,5 °C 3,2 km/h (1 Bft)
01.12.2024 12:00 23,7 °C 3,9 °C 47 % 85 % 1025,1 hPa 0,0 l/m² 2,3 km/h (1 Bft) SW 1,00 h 297 W/m² 1,6 °C 3,9 °C 4,3 km/h (1 Bft)
01.12.2024 13:00 23,4 °C 5,1 °C 49 % 81 % 1024,4 hPa 0,0 l/m² 7,9 km/h (2 Bft) S-SO 1,00 h 238 W/m² 2,1 °C 3,8 °C 10,9 km/h (2 Bft)
01.12.2024 14:00 23,0 °C 5,4 °C 49 % 78 % 1023,7 hPa 0,0 l/m² 5,5 km/h (2 Bft) S-SO 1,00 h 132 W/m² 2,0 °C 5,2 °C 7,9 km/h (2 Bft)
01.12.2024 15:00 22,9 °C 4,6 °C 50 % 80 % 1023,2 hPa 0,0 l/m² 0,3 km/h (0 Bft) S-SO 0,22 h 31 W/m² 1,5 °C 4,6 °C 0,8 km/h (0 Bft)
01.12.2024 16:00 23,0 °C 1,1 °C 52 % 86 % 1022,6 hPa 0,0 l/m² 0,0 km/h (0 Bft) S-SO 0,00 h 5 W/m² -0,9 °C 1,1 °C 0,0 km/h (0 Bft)
01.12.2024 17:00 22,8 °C -0,7 °C 52 % 89 % 1022,4 hPa 0,0 l/m² 0,3 km/h (0 Bft) S-SO 0,00 h 0 W/m² -2,3 °C -0,7 °C 0,6 km/h (0 Bft)
01.12.2024 18:00 22,6 °C -1,3 °C 52 % 90 % 1021,9 hPa 0,0 l/m² 3,7 km/h (1 Bft) S-SO 0,00 h 0 W/m² -2,7 °C -1,3 °C 4,9 km/h (1 Bft)
01.12.2024 19:00 22,6 °C -1,8 °C 55 % 90 % 1021,6 hPa 0,0 l/m² 0,3 km/h (0 Bft) S-SO 0,00 h 0 W/m² -3,2 °C -1,8 °C 0,6 km/h (0 Bft)
01.12.2024 20:00 22,6 °C -2,2 °C 56 % 91 % 1021,3 hPa 0,0 l/m² 1,2 km/h (1 Bft) S-SO 0,00 h 0 W/m² -3,5 °C -2,2 °C 2,0 km/h (1 Bft)
01.12.2024 21:00 22,9 °C -2,7 °C 55 % 91 % 1020,8 hPa 0,0 l/m² 2,3 km/h (1 Bft) S-SO 0,00 h 0 W/m² -3,9 °C -2,7 °C 3,6 km/h (1 Bft)
01.12.2024 22:00 22,9 °C -1,3 °C 54 % 91 % 1020,1 hPa 0,0 l/m² 4,6 km/h (1 Bft) S-SO 0,00 h 0 W/m² -2,6 °C -2,3 °C 7,2 km/h (2 Bft)
01.12.2024 23:00 22,7 °C -0,2 °C 54 % 88 % 1019,7 hPa 0,0 l/m² 8,5 km/h (2 Bft) S-SO 0,00 h 0 W/m² -1,9 °C -2,7 °C 12,2 km/h (2 Bft)
Min-Datum _ 28.11.24 01.12.24 01.12.24 25.11.24 25.11.24 - 01.12.24 - - - 01.12.24 01.12.24 01.12.24
_ Min-Zeit 06:09 07:16 11:12 20:06 18:01 - 22:04 - - - 07:16 22:59 22:04
Minimum _ 21,0 °C -5,4 °C 44 % 56 % 1007,1 hPa - 0,0 km/h (0 Bft) - - - -6,5 °C -6,6 °C 0,0 km/h (0 Bft)
Max-Datum _ 01.12.24 25.11.24 28.11.24 27.11.24 29.11.24 26.11.24 28.11.24 - 01.12.24 26.11.24 25.11.24 25.11.24 28.11.24
_ Max-Zeit 12:05 21:43 20:00 02:12 20:37 01:26 04:37 - 09:02 11:56 13:16 22:31 11:10
Maximum _ 23,7 °C 15,4 °C 58 % 95 % 1035,3 hPa 0,6 l/m² 49,1 km/h
SW (7 Bft)
- 0,05 h 394 W/m² 9,5 °C 14,8 °C 75,6 km/h
W (9 Bft)
Durchschnitt _ 21,7 °C 5,8 °C 54 % 83 % 1021,5 hPa #2,8 l/m² 7,8 km/h (2 Bft) S-SO #33:20 h 34 W/m² 3,1 °C 3,7 °C 11,3 km/h (2 Bft)
© 2009 Mathias Hoßbach